Cathlamet — WYR7641 — position and weather

sailwx.info

Track history (hours):
 
Tides and Currents Weather Stations Pressure Air Temp Water Temp Dewpoint Dewpoint Depression Visibility Wind Speed Wind Dir Waves Ship Positions

Cathlamet

Owner: WASHINGTON, STATE OF; Dept. of Transportation, OLYMPIA, WA. More information available from US FCC via Universal Licensing System and Coast Guard Vessel Documentation Center.

Last reported at 2015-Apr-01 00:34 UTC. Time now 2015-Apr-01 01:14 UTC.
Position N 47°31' W 122°24'.

Length 100 m.

Type: Passenger vessel. MMSI: 366773070.

Date/timePositionNaut miles runAvg speedWind from/ knotsBaromVisibWave heightAir tempDewpointWater temp
2015-Apr-01 00:34N 47°31' W 122°24'1 4.6
2015-Apr-01 00:26N 47°31' W 122°25'1 0.6
2015-Mar-31 23:33N 47°31' W 122°24'0 6.1
2015-Mar-31 23:30N 47°31' W 122°24'0 0.4
2015-Mar-31 22:34N 47°31' W 122°24'0 1.2
2015-Mar-31 22:11N 47°32' W 122°24'3 5.0
2015-Mar-31 21:33N 47°31' W 122°29'112.5
2015-Mar-31 21:31N 47°31' W 122°28'2 1.6
2015-Mar-31 20:33N 47°31' W 122°26'0 9.8
2015-Mar-31 20:31N 47°31' W 122°25'2 2.0
2015-Mar-31 19:33N 47°31' W 122°28'0 9.1
2015-Mar-31 19:31N 47°31' W 122°29'3 3.5
2015-Mar-31 18:34N 47°31' W 122°24'1 3.9
2015-Mar-31 18:16N 47°31' W 122°25'1 1.6
2015-Mar-31 17:33N 47°31' W 122°24'1 8.0
2015-Mar-31 17:25N 47°31' W 122°25'2 2.0
2015-Mar-31 16:34N 47°31' W 122°28'0 0.8
2015-Mar-31 16:25N 47°31' W 122°28'0 0.0
2015-Mar-31 15:33N 47°31' W 122°28'0 1.4
2015-Mar-31 15:30N 47°31' W 122°28'2 2.6
2015-Mar-31 14:34N 47°31' W 122°24'1 9.4
2015-Mar-31 14:30N 47°31' W 122°25'0 0.4
2015-Mar-31 13:34N 47°31' W 122°25'111.0
2015-Mar-31 13:30N 47°31' W 122°25'2 1.8
2015-Mar-31 12:33N 47°31' W 122°28'0 0.0
2015-Mar-31 12:30N 47°31' W 122°28'0 0.0
2015-Mar-31 11:33N 47°31' W 122°28'0 2.0
2015-Mar-31 11:30N 47°31' W 122°28'1 1.4
2015-Mar-31 10:34N 47°31' W 122°30'0 0.8
2015-Mar-31 10:25N 47°31' W 122°30'1 1.5
2015-Mar-31 09:33N 47°31' W 122°28'0 0.0
2015-Mar-31 09:30N 47°31' W 122°28'1 1.4
2015-Mar-31 08:33N 47°31' W 122°30'1 5.4
2015-Mar-31 08:19N 47°31' W 122°28'1 0.9
2015-Mar-31 07:34N 47°31' W 122°28'111.6
2015-Mar-31 07:29N 47°31' W 122°29'4 3.8
2015-Mar-31 06:34N 47°31' W 122°24'1 4.4
2015-Mar-31 06:19N 47°31' W 122°25'114.1
2015-Mar-31 06:14N 47°31' W 122°27'1 1.1
2015-Mar-31 05:34N 47°31' W 122°28'0 0.1
2015-Mar-31 04:34N 47°31' W 122°28'1 7.3
2015-Mar-31 04:29N 47°31' W 122°27'1 0.7
2015-Mar-31 03:34N 47°31' W 122°28'111.1
2015-Mar-31 03:29N 47°31' W 122°29'4 3.9
2015-Mar-31 02:33N 47°31' W 122°24'1 1.4
2015-Mar-31 02:09N 47°31' W 122°25'3 5.5
2015-Mar-31 01:33N 47°31' W 122°30'0 0.0
2015-Mar-31 01:29N 47°31' W 122°30'4 4.4
2015-Mar-31 00:33N 47°31' W 122°24'1 5.2
2015-Mar-31 00:22N 47°31' W 122°25'1 1.2
2015-Mar-30 23:33N 47°31' W 122°24'1 4.9
2015-Mar-30 23:23N 47°31' W 122°25'1 1.0
2015-Mar-30 22:33N 47°31' W 122°24'0 1.1
2015-Mar-30 22:08N 47°32' W 122°24'2 4.3
2015-Mar-30 21:33N 47°32' W 122°28'0 4.6
2015-Mar-30 21:33N 47°32' W 122°28'1 1.5
2015-Mar-30 20:33N 47°31' W 122°26'0 4.7
2015-Mar-30 20:32N 47°31' W 122°26'2 1.7
2015-Mar-30 19:33N 47°31' W 122°28'0 2.8
2015-Mar-30 19:33N 47°31' W 122°28'3 3.1
2015-Mar-30 18:33N 47°31' W 122°24'3 6.0
2015-Mar-30 18:06N 47°31' W 122°28'3 5.1
2015-Mar-30 17:34N 47°31' W 122°24'111.1
2015-Mar-30 17:26N 47°31' W 122°26'1 1.7
2015-Mar-30 16:33N 47°31' W 122°28'0 0.0
2015-Mar-30 16:31N 47°31' W 122°28'0 0.3
2015-Mar-30 15:34N 47°31' W 122°28'0 9.5
2015-Mar-30 15:31N 47°31' W 122°28'3 3.1
2015-Mar-30 14:34N 47°31' W 122°24'0 9.4
2015-Mar-30 14:31N 47°31' W 122°25'0 0.3
2015-Mar-30 13:34N 47°31' W 122°24'010.4
2015-Mar-30 13:31N 47°31' W 122°25'2 2.1
2015-Mar-30 12:34N 47°31' W 122°28'0 0.0
2015-Mar-30 12:31N 47°31' W 122°28'0 0.0
2015-Mar-30 11:33N 47°31' W 122°28'0 0.6
2015-Mar-30 11:31N 47°31' W 122°28'1 1.3
2015-Mar-30 10:34N 47°31' W 122°30'0 0.1
2015-Mar-30 09:51N 47°31' W 122°30'1 4.3
2015-Mar-30 09:34N 47°31' W 122°28'0 2.0
2015-Mar-30 09:31N 47°31' W 122°28'1 1.4
2015-Mar-30 08:33N 47°31' W 122°30'0 2.9
2015-Mar-30 08:31N 47°31' W 122°30'1 1.4
2015-Mar-30 07:33N 47°31' W 122°28'010.4
2015-Mar-30 07:31N 47°31' W 122°28'3 3.3
2015-Mar-30 06:34N 47°31' W 122°24'2 2.2
2015-Mar-30 05:33N 47°31' W 122°27'0 0.3
2015-Mar-30 04:33N 47°31' W 122°27'1 0.8
2015-Mar-30 03:55N 47°31' W 122°27'1 3.9
2015-Mar-30 03:34N 47°31' W 122°29'1 9.8
2015-Mar-30 03:30N 47°31' W 122°30'4 4.2
2015-Mar-30 02:33N 47°31' W 122°24'1 3.3
2015-Mar-30 02:20N 47°32' W 122°25'1 0.9
2015-Mar-30 01:33N 47°31' W 122°24'1 3.7
2015-Mar-30 01:20N 47°31' W 122°25'1 1.1
2015-Mar-30 00:33N 47°31' W 122°24'1 3.4
2015-Mar-30 00:20N 47°31' W 122°25'3 3.8
2015-Mar-29 23:33N 47°31' W 122°29'1 7.1
2015-Mar-29 23:25N 47°31' W 122°28'0 0.3
2015-Mar-29 22:34N 47°31' W 122°28'0 3.1
2015-Mar-29 22:30N 47°31' W 122°28'0 0.3
2015-Mar-29 21:34N 47°31' W 122°28'111.0
2015-Mar-29 21:29N 47°31' W 122°27'1 1.0
2015-Mar-29 20:33N 47°31' W 122°28'1 9.1
2015-Mar-29 20:29N 47°31' W 122°27'2 1.9
2015-Mar-29 19:33N 47°31' W 122°30'0 1.2
2015-Mar-29 19:29N 47°31' W 122°30'4 4.4
2015-Mar-29 18:33N 47°31' W 122°24'3 8.8
2015-Mar-29 18:14N 47°31' W 122°28'0 0.1
2015-Mar-29 17:34N 47°31' W 122°28'0 0.0
2015-Mar-29 17:29N 47°31' W 122°28'0 0.0
2015-Mar-29 16:33N 47°31' W 122°28'0 2.0
2015-Mar-29 16:29N 47°31' W 122°28'3 3.0
2015-Mar-29 15:33N 47°31' W 122°24'0 0.5
2015-Mar-29 15:13N 47°31' W 122°24'4 5.9
2015-Mar-29 14:34N 47°31' W 122°30'0 3.7
2015-Mar-29 14:29N 47°31' W 122°29'4 4.0
2015-Mar-29 13:34N 47°31' W 122°24'110.6
2015-Mar-29 13:29N 47°31' W 122°25'2 2.0
2015-Mar-29 12:34N 47°31' W 122°28'0 0.0
2015-Mar-29 12:33N 47°31' W 122°28'0 0.0
2015-Mar-29 11:33N 47°31' W 122°28'0 0.0
2015-Mar-29 11:33N 47°31' W 122°28'1 1.3
2015-Mar-29 10:34N 47°31' W 122°30'0 0.0
2015-Mar-29 10:22N 47°31' W 122°30'1 1.6
2015-Mar-29 09:33N 47°31' W 122°28'0 0.0
2015-Mar-29 09:33N 47°31' W 122°28'1 1.3
2015-Mar-29 08:33N 47°31' W 122°30'0 0.4
2015-Mar-29 08:32N 47°31' W 122°30'1 1.2
2015-Mar-29 07:34N 47°31' W 122°28'010.6
2015-Mar-29 07:32N 47°31' W 122°28'3 3.1
2015-Mar-29 06:33N 47°31' W 122°24'214.1
2015-Mar-29 06:27N 47°31' W 122°26'1 2.6
2015-Mar-29 06:02N 47°31' W 122°28'0 0.8
2015-Mar-29 05:34N 47°31' W 122°28'0 0.4
2015-Mar-29 04:34N 47°31' W 122°28'0 6.0
2015-Mar-29 04:32N 47°31' W 122°28'1 0.9
2015-Mar-29 03:33N 47°31' W 122°29'0 9.9
2015-Mar-29 03:32N 47°31' W 122°29'4 3.8
2015-Mar-29 02:33N 47°31' W 122°24'1 3.9
2015-Mar-29 02:17N 47°31' W 122°25'1 1.5
2015-Mar-29 01:33N 47°31' W 122°24'1 3.9
2015-Mar-29 01:22N 47°31' W 122°25'1 0.9
2015-Mar-29 00:33N 47°31' W 122°24'0 3.1
2015-Mar-29 00:26N 47°31' W 122°24'2 2.7
2015-Mar-28 23:33N 47°31' W 122°28'0 2.0
2015-Mar-28 23:27N 47°31' W 122°28'0 0.0
2015-Mar-28 22:33N 47°31' W 122°28'0 0.0
2015-Mar-28 22:32N 47°31' W 122°28'1 1.5
2015-Mar-28 21:33N 47°31' W 122°26'012.3
2015-Mar-28 21:32N 47°31' W 122°25'2 1.8
2015-Mar-28 20:34N 47°31' W 122°28'0 4.8
2015-Mar-28 20:32N 47°31' W 122°28'1 1.3
2015-Mar-28 19:33N 47°31' W 122°29'0 0.6
2015-Mar-28 19:21N 47°31' W 122°30'4 4.9
2015-Mar-28 18:33N 47°31' W 122°24'3 6.9
2015-Mar-28 18:10N 47°31' W 122°28'0 0.1
2015-Mar-28 17:33N 47°31' W 122°28'0 0.0
2015-Mar-28 17:30N 47°31' W 122°28'0 0.3
2015-Mar-28 16:34N 47°31' W 122°28'1 2.2
2015-Mar-28 16:08N 47°31' W 122°29'4 6.3
2015-Mar-28 15:33N 47°31' W 122°24'0 0.6
2015-Mar-28 15:13N 47°31' W 122°24'4 5.9
2015-Mar-28 14:33N 47°31' W 122°30'0 2.2
2015-Mar-28 14:32N 47°31' W 122°30'4 4.0
2015-Mar-28 13:33N 47°31' W 122°24'214.1
2015-Mar-28 13:25N 47°31' W 122°27'1 0.9
2015-Mar-28 12:33N 47°31' W 122°28'0 0.0
2015-Mar-28 12:30N 47°31' W 122°28'0 0.0
2015-Mar-28 11:33N 47°31' W 122°28'0 3.8
2015-Mar-28 11:30N 47°31' W 122°28'1 1.4
2015-Mar-28 10:34N 47°31' W 122°30'0 0.0
2015-Mar-28 10:30N 47°31' W 122°30'1 1.4
2015-Mar-28 09:33N 47°31' W 122°28'0 0.0
2015-Mar-28 09:29N 47°31' W 122°28'1 1.4
2015-Mar-28 08:33N 47°31' W 122°30'0 3.8
2015-Mar-28 08:30N 47°31' W 122°30'2 1.7
2015-Mar-28 07:33N 47°31' W 122°27'114.9
2015-Mar-28 07:30N 47°31' W 122°29'3 3.8
2015-Mar-28 06:44N 47°31' W 122°24'0 2.0
2015-Mar-28 06:33N 47°31' W 122°24'1 1.0
2015-Mar-28 05:33N 47°31' W 122°25'3 3.0
2015-Mar-28 04:34N 47°31' W 122°30'0 1.8
2015-Mar-28 04:28N 47°31' W 122°30'2 1.8
2015-Mar-28 03:34N 47°31' W 122°27'0 9.5
2015-Mar-28 03:32N 47°31' W 122°27'0 0.5
2015-Mar-28 02:33N 47°31' W 122°28'0 0.0
2015-Mar-28 02:32N 47°31' W 122°28'3 2.9
2015-Mar-28 01:33N 47°31' W 122°24'1 3.4
2015-Mar-28 01:12N 47°32' W 122°26'2 2.9
2015-Mar-28 00:33N 47°31' W 122°28'0 0.0
2015-Mar-28 00:32N 47°31' W 122°28'0 0.0
2015-Mar-27 23:33N 47°31' W 122°28'0 0.0
2015-Mar-27 23:32N 47°31' W 122°28'1 0.9
2015-Mar-27 22:34N 47°31' W 122°27'011.5
2015-Mar-27 22:32N 47°31' W 122°27'2 2.3
2015-Mar-27 21:34N 47°31' W 122°24'0 5.1
2015-Mar-27 21:32N 47°31' W 122°24'3 2.6
2015-Mar-27 20:33N 47°31' W 122°28'0 0.0
2015-Mar-27 20:32N 47°31' W 122°28'1 1.4
2015-Mar-27 19:33N 47°31' W 122°26'1 0.9
2015-Mar-27 18:43N 47°31' W 122°25'213.2
2015-Mar-27 18:33N 47°31' W 122°28'1 3.0
2015-Mar-27 18:07N 47°31' W 122°30'2 3.6
2015-Mar-27 17:34N 47°31' W 122°27'0 0.3
2015-Mar-27 16:55N 47°31' W 122°27'1 2.3
2015-Mar-27 16:34N 47°31' W 122°28'0 0.2
2015-Mar-27 16:30N 47°31' W 122°28'3 2.9
2015-Mar-27 15:33N 47°31' W 122°24'1 5.2
2015-Mar-27 15:25N 47°31' W 122°25'2 2.5
2015-Mar-27 14:33N 47°31' W 122°28'0 3.6
2015-Mar-27 14:30N 47°31' W 122°28'0 0.0
2015-Mar-27 13:33N 47°31' W 122°28'0 0.0
2015-Mar-27 13:30N 47°31' W 122°28'0 0.0
2015-Mar-27 12:33N 47°31' W 122°28'0 0.0
2015-Mar-27 12:30N 47°31' W 122°28'0 0.0
2015-Mar-27 11:33N 47°31' W 122°28'0 0.0
2015-Mar-27 11:29N 47°31' W 122°28'0 0.0
2015-Mar-27 10:33N 47°31' W 122°28'0 0.0
2015-Mar-27 10:30N 47°31' W 122°28'0 0.0
2015-Mar-27 09:33N 47°31' W 122°28'0 0.0
2015-Mar-27 09:30N 47°31' W 122°28'0 0.0
2015-Mar-27 08:33N 47°31' W 122°28'0 0.0
2015-Mar-27 08:29N 47°31' W 122°28'0 0.0
2015-Mar-27 07:33N 47°31' W 122°28'0 0.0
2015-Mar-27 07:30N 47°31' W 122°28'0 0.0
2015-Mar-27 06:33N 47°31' W 122°28'0 0.0
2015-Mar-27 05:33N 47°31' W 122°28'1 1.3
2015-Mar-27 04:34N 47°31' W 122°30'1 4.6
2015-Mar-27 04:25N 47°31' W 122°29'1 0.9
2015-Mar-27 03:34N 47°31' W 122°28'0 1.3
2015-Mar-27 03:30N 47°31' W 122°28'0 0.0
2015-Mar-27 02:33N 47°31' W 122°28'0 0.1
2015-Mar-27 02:30N 47°31' W 122°28'3 3.0
2015-Mar-27 01:33N 47°31' W 122°24'0 1.6
2015-Mar-27 01:15N 47°31' W 122°25'2 3.4
2015-Mar-27 00:34N 47°31' W 122°28'0 0.0
2015-Mar-27 00:30N 47°31' W 122°28'0 0.0
2015-Mar-26 23:33N 47°31' W 122°28'0 0.0
2015-Mar-26 23:29N 47°31' W 122°28'1 1.3
2015-Mar-26 22:33N 47°31' W 122°26'114.7
2015-Mar-26 22:29N 47°31' W 122°28'3 2.8
2015-Mar-26 21:33N 47°31' W 122°24'1 8.8
2015-Mar-26 21:29N 47°31' W 122°25'2 2.2
2015-Mar-26 20:33N 47°31' W 122°28'0 0.0
2015-Mar-26 20:29N 47°31' W 122°28'1 1.6
2015-Mar-26 19:33N 47°31' W 122°26'1 8.0
2015-Mar-26 19:22N 47°31' W 122°28'0 0.0
2015-Mar-26 18:34N 47°31' W 122°28'0 0.1
2015-Mar-26 17:39N 47°31' W 122°28'1 8.0
2015-Mar-26 17:33N 47°31' W 122°27'1 0.6
2015-Mar-26 16:33N 47°31' W 122°28'2 2.5
2015-Mar-26 15:34N 47°31' W 122°24'112.2
2015-Mar-26 15:31N 47°31' W 122°25'2 2.0
2015-Mar-26 14:33N 47°31' W 122°28'0 3.1
2015-Mar-26 14:31N 47°31' W 122°28'0 0.0
2015-Mar-26 13:34N 47°31' W 122°28'0 0.1
2015-Mar-26 13:31N 47°31' W 122°28'0 0.0
2015-Mar-26 12:33N 47°31' W 122°28'0 0.0
2015-Mar-26 12:31N 47°31' W 122°28'0 0.0
2015-Mar-26 11:33N 47°31' W 122°28'0 0.0
2015-Mar-26 11:31N 47°31' W 122°28'0 0.0
2015-Mar-26 10:33N 47°31' W 122°28'0 0.0
2015-Mar-26 10:31N 47°31' W 122°28'0 0.0
2015-Mar-26 09:34N 47°31' W 122°28'0 0.0
2015-Mar-26 09:31N 47°31' W 122°28'0 0.0
2015-Mar-26 08:33N 47°31' W 122°28'0 0.0
2015-Mar-26 08:30N 47°31' W 122°28'0 0.0
2015-Mar-26 07:33N 47°31' W 122°28'0 0.1
2015-Mar-26 07:30N 47°31' W 122°28'0 0.0
2015-Mar-26 06:33N 47°31' W 122°28'0 0.0
2015-Mar-26 06:30N 47°31' W 122°28'0 0.0
2015-Mar-26 06:10N 47°31' W 122°28'0 0.0
2015-Mar-26 05:33N 47°31' W 122°28'1 1.3
2015-Mar-26 04:33N 47°31' W 122°30'0 0.0
2015-Mar-26 04:30N 47°31' W 122°30'2 2.0
2015-Mar-26 03:33N 47°31' W 122°27'1 4.8
2015-Mar-26 03:25N 47°31' W 122°28'0 0.0
2015-Mar-26 02:33N 47°31' W 122°28'0 0.7
2015-Mar-26 02:30N 47°31' W 122°28'3 3.0
2015-Mar-26 01:33N 47°31' W 122°24'1 2.5
2015-Mar-26 01:14N 47°31' W 122°25'2 3.1
2015-Mar-26 00:33N 47°31' W 122°28'0 0.1
2015-Mar-26 00:30N 47°31' W 122°28'0 0.0
2015-Mar-25 23:33N 47°31' W 122°28'0 0.1
2015-Mar-25 23:30N 47°31' W 122°28'1 1.0
2015-Mar-25 22:34N 47°31' W 122°26'113.7
2015-Mar-25 22:30N 47°31' W 122°28'3 2.9
2015-Mar-25 21:33N 47°31' W 122°24'0 6.7
2015-Mar-25 21:29N 47°31' W 122°24'2 2.5
2015-Mar-25 20:33N 47°31' W 122°28'0 0.0
2015-Mar-25 20:24N 47°31' W 122°28'2 1.8
2015-Mar-25 19:33N 47°31' W 122°26'113.3
2015-Mar-25 19:29N 47°31' W 122°27'0 0.4
2015-Mar-25 18:33N 47°31' W 122°28'0 1.7
2015-Mar-25 18:29N 47°31' W 122°28'0 0.5
2015-Mar-25 17:33N 47°31' W 122°27'112.5
2015-Mar-25 17:29N 47°31' W 122°26'1 1.5
2015-Mar-25 16:34N 47°31' W 122°28'1 7.0
2015-Mar-25 16:29N 47°31' W 122°28'3 3.3
2015-Mar-25 15:34N 47°31' W 122°24'1 9.5
2015-Mar-25 15:29N 47°31' W 122°25'2 2.2
2015-Mar-25 14:33N 47°31' W 122°28'0 0.4
2015-Mar-25 13:46N 47°31' W 122°27'0 1.5
2015-Mar-25 13:33N 47°31' W 122°28'0 0.0
2015-Mar-25 13:32N 47°31' W 122°28'0 0.0
2015-Mar-25 12:33N 47°31' W 122°28'0 0.0
2015-Mar-25 12:32N 47°31' W 122°28'0 0.0
2015-Mar-25 11:33N 47°31' W 122°28'0 0.0
2015-Mar-25 11:31N 47°31' W 122°28'0 0.0
2015-Mar-25 10:33N 47°31' W 122°28'0 0.0
2015-Mar-25 10:31N 47°31' W 122°28'0 0.0
2015-Mar-25 09:33N 47°31' W 122°28'0 0.0
2015-Mar-25 09:31N 47°31' W 122°28'0 0.0
2015-Mar-25 08:33N 47°31' W 122°28'0 0.0
2015-Mar-25 08:31N 47°31' W 122°28'0 0.0
2015-Mar-25 07:33N 47°31' W 122°28'0 0.0
2015-Mar-25 07:31N 47°31' W 122°28'0 0.0
2015-Mar-25 06:33N 47°31' W 122°28'0 0.0
2015-Mar-25 06:31N 47°31' W 122°28'0 0.0
2015-Mar-25 06:06N 47°31' W 122°28'0 0.0
2015-Mar-25 05:33N 47°31' W 122°28'1 1.3
2015-Mar-25 04:33N 47°31' W 122°30'0 0.0
2015-Mar-25 04:30N 47°31' W 122°30'2 2.1
2015-Mar-25 03:33N 47°31' W 122°27'113.1
2015-Mar-25 03:31N 47°31' W 122°28'0 0.1
2015-Mar-25 02:34N 47°31' W 122°28'0 0.7
2015-Mar-25 02:30N 47°31' W 122°28'3 2.9
2015-Mar-25 01:33N 47°31' W 122°24'1 2.0
2015-Mar-25 01:10N 47°32' W 122°25'2 3.4
2015-Mar-25 00:33N 47°31' W 122°28'0 0.0
2015-Mar-25 00:30N 47°31' W 122°28'0 0.0
2015-Mar-24 23:33N 47°31' W 122°28'0 0.0
2015-Mar-24 23:29N 47°31' W 122°28'0 0.0
2015-Mar-24 22:34N 47°31' W 122°28'0 0.1
2015-Mar-24 22:30N 47°31' W 122°28'3 2.9
2015-Mar-24 21:33N 47°31' W 122°24'0 9.0
2015-Mar-24 21:30N 47°31' W 122°25'2 2.4
2015-Mar-24 20:33N 47°31' W 122°28'0 0.0
2015-Mar-24 20:30N 47°31' W 122°28'1 1.6
2015-Mar-24 19:33N 47°31' W 122°26'110.1
2015-Mar-24 19:25N 47°31' W 122°28'0 0.0
2015-Mar-24 18:33N 47°31' W 122°28'0 0.0
2015-Mar-24 18:30N 47°31' W 122°28'0 0.4
2015-Mar-24 17:33N 47°31' W 122°27'112.3
2015-Mar-24 17:29N 47°31' W 122°26'1 1.2
2015-Mar-24 16:34N 47°31' W 122°28'0 2.4
2015-Mar-24 16:29N 47°31' W 122°28'3 2.7
2015-Mar-24 15:33N 47°31' W 122°24'1 7.9
2015-Mar-24 15:29N 47°31' W 122°25'2 2.2
2015-Mar-24 14:33N 47°31' W 122°28'0 0.1
2015-Mar-24 14:29N 47°31' W 122°28'0 0.0
2015-Mar-24 13:33N 47°31' W 122°28'0 0.0
2015-Mar-24 13:29N 47°31' W 122°28'0 0.0
2015-Mar-24 12:33N 47°31' W 122°28'0 0.0
2015-Mar-24 12:29N 47°31' W 122°28'0 0.0
2015-Mar-24 11:33N 47°31' W 122°28'0 0.0
2015-Mar-24 11:29N 47°31' W 122°28'0 0.0
2015-Mar-24 10:33N 47°31' W 122°28'0 0.0
2015-Mar-24 10:29N 47°31' W 122°28'0 0.0
2015-Mar-24 09:33N 47°31' W 122°28'0 0.0
2015-Mar-24 09:07N 47°31' W 122°28'0 0.0
2015-Mar-24 08:33N 47°31' W 122°28'0 0.0
2015-Mar-24 08:31N 47°31' W 122°28'0 0.0
2015-Mar-24 07:33N 47°31' W 122°28'0 0.0
2015-Mar-24 07:31N 47°31' W 122°28'0 0.0
2015-Mar-24 06:33N 47°31' W 122°28'0 0.0
2015-Mar-24 06:26N 47°31' W 122°28'0 0.0
2015-Mar-24 06:01N 47°31' W 122°28'0 0.0
2015-Mar-24 05:33N 47°31' W 122°28'1 1.3
2015-Mar-24 04:34N 47°31' W 122°30'1 5.7
2015-Mar-24 04:26N 47°31' W 122°29'1 0.9
2015-Mar-24 03:34N 47°31' W 122°28'0 4.4
2015-Mar-24 03:31N 47°31' W 122°28'0 0.0
2015-Mar-24 02:33N 47°31' W 122°28'0 0.4
2015-Mar-24 02:31N 47°31' W 122°28'3 2.9
2015-Mar-24 01:33N 47°31' W 122°24'0 0.4
2015-Mar-24 01:16N 47°31' W 122°24'3 3.8
2015-Mar-24 00:33N 47°31' W 122°28'0 0.0
2015-Mar-24 00:25N 47°31' W 122°28'0 0.0
2015-Mar-23 23:33N 47°31' W 122°28'0 0.0
2015-Mar-23 23:30N 47°31' W 122°28'1 1.0
2015-Mar-23 22:33N 47°31' W 122°26'111.8
2015-Mar-23 22:30N 47°31' W 122°28'3 2.7
2015-Mar-23 21:33N 47°31' W 122°24'0 5.4
2015-Mar-23 21:30N 47°31' W 122°24'2 2.6
2015-Mar-23 20:33N 47°31' W 122°28'0 0.0
2015-Mar-23 20:30N 47°31' W 122°28'2 1.7
2015-Mar-23 19:34N 47°31' W 122°25'114.2
2015-Mar-23 19:30N 47°31' W 122°27'1 0.8
2015-Mar-23 18:33N 47°31' W 122°28'0 1.2
2015-Mar-23 18:30N 47°31' W 122°28'0 0.4
2015-Mar-23 17:33N 47°31' W 122°28'112.6
2015-Mar-23 17:30N 47°31' W 122°26'1 1.2
2015-Mar-23 16:33N 47°31' W 122°28'0 2.8
2015-Mar-23 16:30N 47°31' W 122°28'3 2.9
2015-Mar-23 15:34N 47°31' W 122°24'1 8.6
2015-Mar-23 15:30N 47°31' W 122°25'2 2.4
2015-Mar-23 14:33N 47°31' W 122°28'0 1.4
2015-Mar-23 14:24N 47°31' W 122°28'0 0.3
2015-Mar-23 13:33N 47°31' W 122°28'0 0.1
2015-Mar-23 13:29N 47°31' W 122°28'0 0.0
2015-Mar-23 12:33N 47°31' W 122°28'0 0.0
2015-Mar-23 12:29N 47°31' W 122°28'0 0.0
2015-Mar-23 11:33N 47°31' W 122°28'0 0.0
2015-Mar-23 11:29N 47°31' W 122°28'0 0.0
2015-Mar-23 10:34N 47°31' W 122°28'0 0.0
2015-Mar-23 10:29N 47°31' W 122°28'0 0.0
2015-Mar-23 09:34N 47°31' W 122°28'0 0.0
2015-Mar-23 09:29N 47°31' W 122°28'0 0.0
2015-Mar-23 08:33N 47°31' W 122°28'0 0.0
2015-Mar-23 08:18N 47°31' W 122°28'0 0.0
2015-Mar-23 07:33N 47°31' W 122°28'0 0.0
2015-Mar-23 07:33N 47°31' W 122°28'0 0.0
2015-Mar-23 06:33N 47°31' W 122°28'0 0.0
2015-Mar-23 06:32N 47°31' W 122°28'0 0.0
2015-Mar-23 06:02N 47°31' W 122°28'0 0.0
2015-Mar-23 05:33N 47°31' W 122°28'0 0.0
2015-Mar-23 04:33N 47°31' W 122°28'0 0.0
2015-Mar-23 04:32N 47°31' W 122°28'0 0.0
2015-Mar-23 03:33N 47°31' W 122°28'0 0.0
2015-Mar-23 03:32N 47°31' W 122°28'0 0.3
2015-Mar-23 02:33N 47°31' W 122°27'0 8.4
2015-Mar-23 02:32N 47°31' W 122°28'0 0.2
2015-Mar-23 01:34N 47°31' W 122°28'0 9.3
2015-Mar-23 01:32N 47°31' W 122°27'2 1.6
2015-Mar-23 00:34N 47°31' W 122°30'0 4.2
2015-Mar-23 00:31N 47°31' W 122°30'4 4.2
2015-Mar-22 23:33N 47°31' W 122°24'1 6.6
2015-Mar-22 23:21N 47°30' W 122°25'3 3.8
2015-Mar-22 22:34N 47°31' W 122°29'113.8
2015-Mar-22 22:31N 47°31' W 122°29'1 0.9
2015-Mar-22 21:33N 47°31' W 122°27'0 8.0
2015-Mar-22 21:31N 47°31' W 122°28'0 0.0
2015-Mar-22 20:33N 47°31' W 122°28'0 0.0
2015-Mar-22 20:31N 47°31' W 122°28'1 1.0
2015-Mar-22 19:34N 47°31' W 122°27'115.3
2015-Mar-22 19:31N 47°31' W 122°26'3 3.0
2015-Mar-22 18:33N 47°31' W 122°30'0 0.3
2015-Mar-22 18:25N 47°31' W 122°30'3 3.4
2015-Mar-22 17:34N 47°31' W 122°25'113.4
2015-Mar-22 17:31N 47°31' W 122°26'1 0.6
2015-Mar-22 16:34N 47°31' W 122°27'115.8
2015-Mar-22 16:30N 47°31' W 122°26'1 1.5
2015-Mar-22 15:34N 47°31' W 122°28'0 5.6
2015-Mar-22 15:30N 47°31' W 122°28'3 2.8
2015-Mar-22 14:33N 47°31' W 122°24'1 4.1
2015-Mar-22 14:20N 47°31' W 122°25'2 2.3
2015-Mar-22 13:34N 47°31' W 122°28'0 3.1
2015-Mar-22 13:30N 47°31' W 122°28'0 0.0
2015-Mar-22 12:33N 47°31' W 122°28'0 0.0
2015-Mar-22 12:30N 47°31' W 122°28'0 0.0
2015-Mar-22 11:33N 47°31' W 122°28'0 0.1
2015-Mar-22 11:30N 47°31' W 122°28'0 0.0
2015-Mar-22 10:33N 47°31' W 122°28'0 0.0
2015-Mar-22 10:18N 47°31' W 122°28'0 0.0
2015-Mar-22 09:33N 47°31' W 122°28'0 0.0
2015-Mar-22 09:29N 47°31' W 122°28'0 0.0
2015-Mar-22 08:33N 47°31' W 122°28'0 0.0
2015-Mar-22 08:29N 47°31' W 122°28'0 0.0
2015-Mar-22 07:33N 47°31' W 122°28'0 0.0
2015-Mar-22 07:29N 47°31' W 122°28'0 0.0
2015-Mar-22 06:33N 47°31' W 122°28'0 0.0
2015-Mar-22 06:29N 47°31' W 122°28'0 0.0
2015-Mar-22 06:09N 47°31' W 122°28'0 0.0
2015-Mar-22 05:33N 47°31' W 122°28'1 0.7
2015-Mar-22 04:33N 47°31' W 122°29'1 8.3
2015-Mar-22 04:29N 47°31' W 122°28'0 0.4
2015-Mar-22 03:33N 47°31' W 122°27'0 5.5
2015-Mar-22 03:29N 47°31' W 122°28'0 0.0
2015-Mar-22 02:34N 47°31' W 122°28'0 0.0
2015-Mar-22 02:33N 47°31' W 122°28'0 0.0
2015-Mar-22 01:33N 47°31' W 122°28'0 0.0
2015-Mar-22 01:33N 47°31' W 122°28'2 2.1
2015-Mar-22 00:34N 47°31' W 122°25'  
Track history (hours):
 
Tides and Currents Weather Stations Pressure Air Temp Water Temp Dewpoint Dewpoint Depression Visibility Wind Speed Wind Dir Waves Ship Positions

Cathlamet

Owner: WASHINGTON, STATE OF; Dept. of Transportation, OLYMPIA, WA. More information available from US FCC via Universal Licensing System and Coast Guard Vessel Documentation Center.

Last reported at 2015-Apr-01 00:34 UTC. Time now 2015-Apr-01 01:14 UTC.
Position N 47°31' W 122°24'.

Length 100 m.

Type: Passenger vessel. MMSI: 366773070.

Date/timePositionNaut miles runAvg speedWind from/ knotsBaromVisibWave heightAir tempDewpointWater temp
2015-Apr-01 00:34N 47°31' W 122°24'1 4.6
2015-Apr-01 00:26N 47°31' W 122°25'1 0.6
2015-Mar-31 23:33N 47°31' W 122°24'0 6.1
2015-Mar-31 23:30N 47°31' W 122°24'0 0.4
2015-Mar-31 22:34N 47°31' W 122°24'0 1.2
2015-Mar-31 22:11N 47°32' W 122°24'3 5.0
2015-Mar-31 21:33N 47°31' W 122°29'112.5
2015-Mar-31 21:31N 47°31' W 122°28'2 1.6
2015-Mar-31 20:33N 47°31' W 122°26'0 9.8
2015-Mar-31 20:31N 47°31' W 122°25'2 2.0
2015-Mar-31 19:33N 47°31' W 122°28'0 9.1
2015-Mar-31 19:31N 47°31' W 122°29'3 3.5
2015-Mar-31 18:34N 47°31' W 122°24'1 3.9
2015-Mar-31 18:16N 47°31' W 122°25'1 1.6
2015-Mar-31 17:33N 47°31' W 122°24'1 8.0
2015-Mar-31 17:25N 47°31' W 122°25'2 2.0
2015-Mar-31 16:34N 47°31' W 122°28'0 0.8
2015-Mar-31 16:25N 47°31' W 122°28'0 0.0
2015-Mar-31 15:33N 47°31' W 122°28'0 1.4
2015-Mar-31 15:30N 47°31' W 122°28'2 2.6
2015-Mar-31 14:34N 47°31' W 122°24'1 9.4
2015-Mar-31 14:30N 47°31' W 122°25'0 0.4
2015-Mar-31 13:34N 47°31' W 122°25'111.0
2015-Mar-31 13:30N 47°31' W 122°25'2 1.8
2015-Mar-31 12:33N 47°31' W 122°28'0 0.0
2015-Mar-31 12:30N 47°31' W 122°28'0 0.0
2015-Mar-31 11:33N 47°31' W 122°28'0 2.0
2015-Mar-31 11:30N 47°31' W 122°28'1 1.4
2015-Mar-31 10:34N 47°31' W 122°30'0 0.8
2015-Mar-31 10:25N 47°31' W 122°30'1 1.5
2015-Mar-31 09:33N 47°31' W 122°28'0 0.0
2015-Mar-31 09:30N 47°31' W 122°28'1 1.4
2015-Mar-31 08:33N 47°31' W 122°30'1 5.4
2015-Mar-31 08:19N 47°31' W 122°28'1 0.9
2015-Mar-31 07:34N 47°31' W 122°28'111.6
2015-Mar-31 07:29N 47°31' W 122°29'4 3.8
2015-Mar-31 06:34N 47°31' W 122°24'1 4.4
2015-Mar-31 06:19N 47°31' W 122°25'114.1
2015-Mar-31 06:14N 47°31' W 122°27'1 1.1
2015-Mar-31 05:34N 47°31' W 122°28'0 0.1
2015-Mar-31 04:34N 47°31' W 122°28'1 7.3
2015-Mar-31 04:29N 47°31' W 122°27'1 0.7
2015-Mar-31 03:34N 47°31' W 122°28'111.1
2015-Mar-31 03:29N 47°31' W 122°29'4 3.9
2015-Mar-31 02:33N 47°31' W 122°24'1 1.4
2015-Mar-31 02:09N 47°31' W 122°25'3 5.5
2015-Mar-31 01:33N 47°31' W 122°30'0 0.0
2015-Mar-31 01:29N 47°31' W 122°30'4 4.4
2015-Mar-31 00:33N 47°31' W 122°24'1 5.2
2015-Mar-31 00:22N 47°31' W 122°25'1 1.2
2015-Mar-30 23:33N 47°31' W 122°24'1 4.9
2015-Mar-30 23:23N 47°31' W 122°25'1 1.0
2015-Mar-30 22:33N 47°31' W 122°24'0 1.1
2015-Mar-30 22:08N 47°32' W 122°24'2 4.3
2015-Mar-30 21:33N 47°32' W 122°28'0 4.6
2015-Mar-30 21:33N 47°32' W 122°28'1 1.5
2015-Mar-30 20:33N 47°31' W 122°26'0 4.7
2015-Mar-30 20:32N 47°31' W 122°26'2 1.7
2015-Mar-30 19:33N 47°31' W 122°28'0 2.8
2015-Mar-30 19:33N 47°31' W 122°28'3 3.1
2015-Mar-30 18:33N 47°31' W 122°24'3 6.0
2015-Mar-30 18:06N 47°31' W 122°28'3 5.1
2015-Mar-30 17:34N 47°31' W 122°24'111.1
2015-Mar-30 17:26N 47°31' W 122°26'1 1.7
2015-Mar-30 16:33N 47°31' W 122°28'0 0.0
2015-Mar-30 16:31N 47°31' W 122°28'0 0.3
2015-Mar-30 15:34N 47°31' W 122°28'0 9.5
2015-Mar-30 15:31N 47°31' W 122°28'3 3.1
2015-Mar-30 14:34N 47°31' W 122°24'0 9.4
2015-Mar-30 14:31N 47°31' W 122°25'0 0.3
2015-Mar-30 13:34N 47°31' W 122°24'010.4
2015-Mar-30 13:31N 47°31' W 122°25'2 2.1
2015-Mar-30 12:34N 47°31' W 122°28'0 0.0
2015-Mar-30 12:31N 47°31' W 122°28'0 0.0
2015-Mar-30 11:33N 47°31' W 122°28'0 0.6
2015-Mar-30 11:31N 47°31' W 122°28'1 1.3
2015-Mar-30 10:34N 47°31' W 122°30'0 0.1
2015-Mar-30 09:51N 47°31' W 122°30'1 4.3
2015-Mar-30 09:34N 47°31' W 122°28'0 2.0
2015-Mar-30 09:31N 47°31' W 122°28'1 1.4
2015-Mar-30 08:33N 47°31' W 122°30'0 2.9
2015-Mar-30 08:31N 47°31' W 122°30'1 1.4
2015-Mar-30 07:33N 47°31' W 122°28'010.4
2015-Mar-30 07:31N 47°31' W 122°28'3 3.3
2015-Mar-30 06:34N 47°31' W 122°24'2 2.2
2015-Mar-30 05:33N 47°31' W 122°27'0 0.3
2015-Mar-30 04:33N 47°31' W 122°27'1 0.8
2015-Mar-30 03:55N 47°31' W 122°27'1 3.9
2015-Mar-30 03:34N 47°31' W 122°29'1 9.8
2015-Mar-30 03:30N 47°31' W 122°30'4 4.2
2015-Mar-30 02:33N 47°31' W 122°24'1 3.3
2015-Mar-30 02:20N 47°32' W 122°25'1 0.9
2015-Mar-30 01:33N 47°31' W 122°24'1 3.7
2015-Mar-30 01:20N 47°31' W 122°25'1 1.1
2015-Mar-30 00:33N 47°31' W 122°24'1 3.4
2015-Mar-30 00:20N 47°31' W 122°25'3 3.8
2015-Mar-29 23:33N 47°31' W 122°29'1 7.1
2015-Mar-29 23:25N 47°31' W 122°28'0 0.3
2015-Mar-29 22:34N 47°31' W 122°28'0 3.1
2015-Mar-29 22:30N 47°31' W 122°28'0 0.3
2015-Mar-29 21:34N 47°31' W 122°28'111.0
2015-Mar-29 21:29N 47°31' W 122°27'1 1.0
2015-Mar-29 20:33N 47°31' W 122°28'1 9.1
2015-Mar-29 20:29N 47°31' W 122°27'2 1.9
2015-Mar-29 19:33N 47°31' W 122°30'0 1.2
2015-Mar-29 19:29N 47°31' W 122°30'4 4.4
2015-Mar-29 18:33N 47°31' W 122°24'3 8.8
2015-Mar-29 18:14N 47°31' W 122°28'0 0.1
2015-Mar-29 17:34N 47°31' W 122°28'0 0.0
2015-Mar-29 17:29N 47°31' W 122°28'0 0.0
2015-Mar-29 16:33N 47°31' W 122°28'0 2.0
2015-Mar-29 16:29N 47°31' W 122°28'3 3.0
2015-Mar-29 15:33N 47°31' W 122°24'0 0.5
2015-Mar-29 15:13N 47°31' W 122°24'4 5.9
2015-Mar-29 14:34N 47°31' W 122°30'0 3.7
2015-Mar-29 14:29N 47°31' W 122°29'4 4.0
2015-Mar-29 13:34N 47°31' W 122°24'110.6
2015-Mar-29 13:29N 47°31' W 122°25'2 2.0
2015-Mar-29 12:34N 47°31' W 122°28'0 0.0
2015-Mar-29 12:33N 47°31' W 122°28'0 0.0
2015-Mar-29 11:33N 47°31' W 122°28'0 0.0
2015-Mar-29 11:33N 47°31' W 122°28'1 1.3
2015-Mar-29 10:34N 47°31' W 122°30'0 0.0
2015-Mar-29 10:22N 47°31' W 122°30'1 1.6
2015-Mar-29 09:33N 47°31' W 122°28'0 0.0
2015-Mar-29 09:33N 47°31' W 122°28'1 1.3
2015-Mar-29 08:33N 47°31' W 122°30'0 0.4
2015-Mar-29 08:32N 47°31' W 122°30'1 1.2
2015-Mar-29 07:34N 47°31' W 122°28'010.6
2015-Mar-29 07:32N 47°31' W 122°28'3 3.1
2015-Mar-29 06:33N 47°31' W 122°24'214.1
2015-Mar-29 06:27N 47°31' W 122°26'1 2.6
2015-Mar-29 06:02N 47°31' W 122°28'0 0.8
2015-Mar-29 05:34N 47°31' W 122°28'0 0.4
2015-Mar-29 04:34N 47°31' W 122°28'0 6.0
2015-Mar-29 04:32N 47°31' W 122°28'1 0.9
2015-Mar-29 03:33N 47°31' W 122°29'0 9.9
2015-Mar-29 03:32N 47°31' W 122°29'4 3.8
2015-Mar-29 02:33N 47°31' W 122°24'1 3.9
2015-Mar-29 02:17N 47°31' W 122°25'1 1.5
2015-Mar-29 01:33N 47°31' W 122°24'1 3.9
2015-Mar-29 01:22N 47°31' W 122°25'1 0.9
2015-Mar-29 00:33N 47°31' W 122°24'0 3.1
2015-Mar-29 00:26N 47°31' W 122°24'2 2.7
2015-Mar-28 23:33N 47°31' W 122°28'0 2.0
2015-Mar-28 23:27N 47°31' W 122°28'0 0.0
2015-Mar-28 22:33N 47°31' W 122°28'0 0.0
2015-Mar-28 22:32N 47°31' W 122°28'1 1.5
2015-Mar-28 21:33N 47°31' W 122°26'012.3
2015-Mar-28 21:32N 47°31' W 122°25'2 1.8
2015-Mar-28 20:34N 47°31' W 122°28'0 4.8
2015-Mar-28 20:32N 47°31' W 122°28'1 1.3
2015-Mar-28 19:33N 47°31' W 122°29'0 0.6
2015-Mar-28 19:21N 47°31' W 122°30'4 4.9
2015-Mar-28 18:33N 47°31' W 122°24'3 6.9
2015-Mar-28 18:10N 47°31' W 122°28'0 0.1
2015-Mar-28 17:33N 47°31' W 122°28'0 0.0
2015-Mar-28 17:30N 47°31' W 122°28'0 0.3
2015-Mar-28 16:34N 47°31' W 122°28'1 2.2
2015-Mar-28 16:08N 47°31' W 122°29'4 6.3
2015-Mar-28 15:33N 47°31' W 122°24'0 0.6
2015-Mar-28 15:13N 47°31' W 122°24'4 5.9
2015-Mar-28 14:33N 47°31' W 122°30'0 2.2
2015-Mar-28 14:32N 47°31' W 122°30'4 4.0
2015-Mar-28 13:33N 47°31' W 122°24'214.1
2015-Mar-28 13:25N 47°31' W 122°27'1 0.9
2015-Mar-28 12:33N 47°31' W 122°28'0 0.0
2015-Mar-28 12:30N 47°31' W 122°28'0 0.0
2015-Mar-28 11:33N 47°31' W 122°28'0 3.8
2015-Mar-28 11:30N 47°31' W 122°28'1 1.4
2015-Mar-28 10:34N 47°31' W 122°30'0 0.0
2015-Mar-28 10:30N 47°31' W 122°30'1 1.4
2015-Mar-28 09:33N 47°31' W 122°28'0 0.0
2015-Mar-28 09:29N 47°31' W 122°28'1 1.4
2015-Mar-28 08:33N 47°31' W 122°30'0 3.8
2015-Mar-28 08:30N 47°31' W 122°30'2 1.7
2015-Mar-28 07:33N 47°31' W 122°27'114.9
2015-Mar-28 07:30N 47°31' W 122°29'3 3.8
2015-Mar-28 06:44N 47°31' W 122°24'0 2.0
2015-Mar-28 06:33N 47°31' W 122°24'1 1.0
2015-Mar-28 05:33N 47°31' W 122°25'3 3.0
2015-Mar-28 04:34N 47°31' W 122°30'0 1.8
2015-Mar-28 04:28N 47°31' W 122°30'2 1.8
2015-Mar-28 03:34N 47°31' W 122°27'0 9.5
2015-Mar-28 03:32N 47°31' W 122°27'0 0.5
2015-Mar-28 02:33N 47°31' W 122°28'0 0.0
2015-Mar-28 02:32N 47°31' W 122°28'3 2.9
2015-Mar-28 01:33N 47°31' W 122°24'1 3.4
2015-Mar-28 01:12N 47°32' W 122°26'2 2.9
2015-Mar-28 00:33N 47°31' W 122°28'0 0.0
2015-Mar-28 00:32N 47°31' W 122°28'0 0.0
2015-Mar-27 23:33N 47°31' W 122°28'0 0.0
2015-Mar-27 23:32N 47°31' W 122°28'1 0.9
2015-Mar-27 22:34N 47°31' W 122°27'011.5
2015-Mar-27 22:32N 47°31' W 122°27'2 2.3
2015-Mar-27 21:34N 47°31' W 122°24'0 5.1
2015-Mar-27 21:32N 47°31' W 122°24'3 2.6
2015-Mar-27 20:33N 47°31' W 122°28'0 0.0
2015-Mar-27 20:32N 47°31' W 122°28'1 1.4
2015-Mar-27 19:33N 47°31' W 122°26'1 0.9
2015-Mar-27 18:43N 47°31' W 122°25'213.2
2015-Mar-27 18:33N 47°31' W 122°28'1 3.0
2015-Mar-27 18:07N 47°31' W 122°30'2 3.6
2015-Mar-27 17:34N 47°31' W 122°27'0 0.3
2015-Mar-27 16:55N 47°31' W 122°27'1 2.3
2015-Mar-27 16:34N 47°31' W 122°28'0 0.2
2015-Mar-27 16:30N 47°31' W 122°28'3 2.9
2015-Mar-27 15:33N 47°31' W 122°24'1 5.2
2015-Mar-27 15:25N 47°31' W 122°25'2 2.5
2015-Mar-27 14:33N 47°31' W 122°28'0 3.6
2015-Mar-27 14:30N 47°31' W 122°28'0 0.0
2015-Mar-27 13:33N 47°31' W 122°28'0 0.0
2015-Mar-27 13:30N 47°31' W 122°28'0 0.0
2015-Mar-27 12:33N 47°31' W 122°28'0 0.0
2015-Mar-27 12:30N 47°31' W 122°28'0 0.0
2015-Mar-27 11:33N 47°31' W 122°28'0 0.0
2015-Mar-27 11:29N 47°31' W 122°28'0 0.0
2015-Mar-27 10:33N 47°31' W 122°28'0 0.0
2015-Mar-27 10:30N 47°31' W 122°28'0 0.0
2015-Mar-27 09:33N 47°31' W 122°28'0 0.0
2015-Mar-27 09:30N 47°31' W 122°28'0 0.0
2015-Mar-27 08:33N 47°31' W 122°28'0 0.0
2015-Mar-27 08:29N 47°31' W 122°28'0 0.0
2015-Mar-27 07:33N 47°31' W 122°28'0 0.0
2015-Mar-27 07:30N 47°31' W 122°28'0 0.0
2015-Mar-27 06:33N 47°31' W 122°28'0 0.0
2015-Mar-27 05:33N 47°31' W 122°28'1 1.3
2015-Mar-27 04:34N 47°31' W 122°30'1 4.6
2015-Mar-27 04:25N 47°31' W 122°29'1 0.9
2015-Mar-27 03:34N 47°31' W 122°28'0 1.3
2015-Mar-27 03:30N 47°31' W 122°28'0 0.0
2015-Mar-27 02:33N 47°31' W 122°28'0 0.1
2015-Mar-27 02:30N 47°31' W 122°28'3 3.0
2015-Mar-27 01:33N 47°31' W 122°24'0 1.6
2015-Mar-27 01:15N 47°31' W 122°25'2 3.4
2015-Mar-27 00:34N 47°31' W 122°28'0 0.0
2015-Mar-27 00:30N 47°31' W 122°28'0 0.0
2015-Mar-26 23:33N 47°31' W 122°28'0 0.0
2015-Mar-26 23:29N 47°31' W 122°28'1 1.3
2015-Mar-26 22:33N 47°31' W 122°26'114.7
2015-Mar-26 22:29N 47°31' W 122°28'3 2.8
2015-Mar-26 21:33N 47°31' W 122°24'1 8.8
2015-Mar-26 21:29N 47°31' W 122°25'2 2.2
2015-Mar-26 20:33N 47°31' W 122°28'0 0.0
2015-Mar-26 20:29N 47°31' W 122°28'1 1.6
2015-Mar-26 19:33N 47°31' W 122°26'1 8.0
2015-Mar-26 19:22N 47°31' W 122°28'0 0.0
2015-Mar-26 18:34N 47°31' W 122°28'0 0.1
2015-Mar-26 17:39N 47°31' W 122°28'1 8.0
2015-Mar-26 17:33N 47°31' W 122°27'1 0.6
2015-Mar-26 16:33N 47°31' W 122°28'2 2.5
2015-Mar-26 15:34N 47°31' W 122°24'112.2
2015-Mar-26 15:31N 47°31' W 122°25'2 2.0
2015-Mar-26 14:33N 47°31' W 122°28'0 3.1
2015-Mar-26 14:31N 47°31' W 122°28'0 0.0
2015-Mar-26 13:34N 47°31' W 122°28'0 0.1
2015-Mar-26 13:31N 47°31' W 122°28'0 0.0
2015-Mar-26 12:33N 47°31' W 122°28'0 0.0
2015-Mar-26 12:31N 47°31' W 122°28'0 0.0
2015-Mar-26 11:33N 47°31' W 122°28'0 0.0
2015-Mar-26 11:31N 47°31' W 122°28'0 0.0
2015-Mar-26 10:33N 47°31' W 122°28'0 0.0
2015-Mar-26 10:31N 47°31' W 122°28'0 0.0
2015-Mar-26 09:34N 47°31' W 122°28'0 0.0
2015-Mar-26 09:31N 47°31' W 122°28'0 0.0
2015-Mar-26 08:33N 47°31' W 122°28'0 0.0
2015-Mar-26 08:30N 47°31' W 122°28'0 0.0
2015-Mar-26 07:33N 47°31' W 122°28'0 0.1
2015-Mar-26 07:30N 47°31' W 122°28'0 0.0
2015-Mar-26 06:33N 47°31' W 122°28'0 0.0
2015-Mar-26 06:30N 47°31' W 122°28'0 0.0
2015-Mar-26 06:10N 47°31' W 122°28'0 0.0
2015-Mar-26 05:33N 47°31' W 122°28'1 1.3
2015-Mar-26 04:33N 47°31' W 122°30'0 0.0
2015-Mar-26 04:30N 47°31' W 122°30'2 2.0
2015-Mar-26 03:33N 47°31' W 122°27'1 4.8
2015-Mar-26 03:25N 47°31' W 122°28'0 0.0
2015-Mar-26 02:33N 47°31' W 122°28'0 0.7
2015-Mar-26 02:30N 47°31' W 122°28'3 3.0
2015-Mar-26 01:33N 47°31' W 122°24'1 2.5
2015-Mar-26 01:14N 47°31' W 122°25'2 3.1
2015-Mar-26 00:33N 47°31' W 122°28'0 0.1
2015-Mar-26 00:30N 47°31' W 122°28'0 0.0
2015-Mar-25 23:33N 47°31' W 122°28'0 0.1
2015-Mar-25 23:30N 47°31' W 122°28'1 1.0
2015-Mar-25 22:34N 47°31' W 122°26'113.7
2015-Mar-25 22:30N 47°31' W 122°28'3 2.9
2015-Mar-25 21:33N 47°31' W 122°24'0 6.7
2015-Mar-25 21:29N 47°31' W 122°24'2 2.5
2015-Mar-25 20:33N 47°31' W 122°28'0 0.0
2015-Mar-25 20:24N 47°31' W 122°28'2 1.8
2015-Mar-25 19:33N 47°31' W 122°26'113.3
2015-Mar-25 19:29N 47°31' W 122°27'0 0.4
2015-Mar-25 18:33N 47°31' W 122°28'0 1.7
2015-Mar-25 18:29N 47°31' W 122°28'0 0.5
2015-Mar-25 17:33N 47°31' W 122°27'112.5
2015-Mar-25 17:29N 47°31' W 122°26'1 1.5
2015-Mar-25 16:34N 47°31' W 122°28'1 7.0
2015-Mar-25 16:29N 47°31' W 122°28'3 3.3
2015-Mar-25 15:34N 47°31' W 122°24'1 9.5
2015-Mar-25 15:29N 47°31' W 122°25'2 2.2
2015-Mar-25 14:33N 47°31' W 122°28'0 0.4
2015-Mar-25 13:46N 47°31' W 122°27'0 1.5
2015-Mar-25 13:33N 47°31' W 122°28'0 0.0
2015-Mar-25 13:32N 47°31' W 122°28'0 0.0
2015-Mar-25 12:33N 47°31' W 122°28'0 0.0
2015-Mar-25 12:32N 47°31' W 122°28'0 0.0
2015-Mar-25 11:33N 47°31' W 122°28'0 0.0
2015-Mar-25 11:31N 47°31' W 122°28'0 0.0
2015-Mar-25 10:33N 47°31' W 122°28'0 0.0
2015-Mar-25 10:31N 47°31' W 122°28'0 0.0
2015-Mar-25 09:33N 47°31' W 122°28'0 0.0
2015-Mar-25 09:31N 47°31' W 122°28'0 0.0
2015-Mar-25 08:33N 47°31' W 122°28'0 0.0
2015-Mar-25 08:31N 47°31' W 122°28'0 0.0
2015-Mar-25 07:33N 47°31' W 122°28'0 0.0
2015-Mar-25 07:31N 47°31' W 122°28'0 0.0
2015-Mar-25 06:33N 47°31' W 122°28'0 0.0
2015-Mar-25 06:31N 47°31' W 122°28'0 0.0
2015-Mar-25 06:06N 47°31' W 122°28'0 0.0
2015-Mar-25 05:33N 47°31' W 122°28'1 1.3
2015-Mar-25 04:33N 47°31' W 122°30'0 0.0
2015-Mar-25 04:30N 47°31' W 122°30'2 2.1
2015-Mar-25 03:33N 47°31' W 122°27'113.1
2015-Mar-25 03:31N 47°31' W 122°28'0 0.1
2015-Mar-25 02:34N 47°31' W 122°28'0 0.7
2015-Mar-25 02:30N 47°31' W 122°28'3 2.9
2015-Mar-25 01:33N 47°31' W 122°24'1 2.0
2015-Mar-25 01:10N 47°32' W 122°25'2 3.4
2015-Mar-25 00:33N 47°31' W 122°28'0 0.0
2015-Mar-25 00:30N 47°31' W 122°28'0 0.0
2015-Mar-24 23:33N 47°31' W 122°28'0 0.0
2015-Mar-24 23:29N 47°31' W 122°28'0 0.0
2015-Mar-24 22:34N 47°31' W 122°28'0 0.1
2015-Mar-24 22:30N 47°31' W 122°28'3 2.9
2015-Mar-24 21:33N 47°31' W 122°24'0 9.0
2015-Mar-24 21:30N 47°31' W 122°25'2 2.4
2015-Mar-24 20:33N 47°31' W 122°28'0 0.0
2015-Mar-24 20:30N 47°31' W 122°28'1 1.6
2015-Mar-24 19:33N 47°31' W 122°26'110.1
2015-Mar-24 19:25N 47°31' W 122°28'0 0.0
2015-Mar-24 18:33N 47°31' W 122°28'0 0.0
2015-Mar-24 18:30N 47°31' W 122°28'0 0.4
2015-Mar-24 17:33N 47°31' W 122°27'112.3
2015-Mar-24 17:29N 47°31' W 122°26'1 1.2
2015-Mar-24 16:34N 47°31' W 122°28'0 2.4
2015-Mar-24 16:29N 47°31' W 122°28'3 2.7
2015-Mar-24 15:33N 47°31' W 122°24'1 7.9
2015-Mar-24 15:29N 47°31' W 122°25'2 2.2
2015-Mar-24 14:33N 47°31' W 122°28'0 0.1
2015-Mar-24 14:29N 47°31' W 122°28'0 0.0
2015-Mar-24 13:33N 47°31' W 122°28'0 0.0
2015-Mar-24 13:29N 47°31' W 122°28'0 0.0
2015-Mar-24 12:33N 47°31' W 122°28'0 0.0
2015-Mar-24 12:29N 47°31' W 122°28'0 0.0
2015-Mar-24 11:33N 47°31' W 122°28'0 0.0
2015-Mar-24 11:29N 47°31' W 122°28'0 0.0
2015-Mar-24 10:33N 47°31' W 122°28'0 0.0
2015-Mar-24 10:29N 47°31' W 122°28'0 0.0
2015-Mar-24 09:33N 47°31' W 122°28'0 0.0
2015-Mar-24 09:07N 47°31' W 122°28'0 0.0
2015-Mar-24 08:33N 47°31' W 122°28'0 0.0
2015-Mar-24 08:31N 47°31' W 122°28'0 0.0
2015-Mar-24 07:33N 47°31' W 122°28'0 0.0
2015-Mar-24 07:31N 47°31' W 122°28'0 0.0
2015-Mar-24 06:33N 47°31' W 122°28'0 0.0
2015-Mar-24 06:26N 47°31' W 122°28'0 0.0
2015-Mar-24 06:01N 47°31' W 122°28'0 0.0
2015-Mar-24 05:33N 47°31' W 122°28'1 1.3
2015-Mar-24 04:34N 47°31' W 122°30'1 5.7
2015-Mar-24 04:26N 47°31' W 122°29'1 0.9
2015-Mar-24 03:34N 47°31' W 122°28'0 4.4
2015-Mar-24 03:31N 47°31' W 122°28'0 0.0
2015-Mar-24 02:33N 47°31' W 122°28'0 0.4
2015-Mar-24 02:31N 47°31' W 122°28'3 2.9
2015-Mar-24 01:33N 47°31' W 122°24'0 0.4
2015-Mar-24 01:16N 47°31' W 122°24'3 3.8
2015-Mar-24 00:33N 47°31' W 122°28'0 0.0
2015-Mar-24 00:25N 47°31' W 122°28'0 0.0
2015-Mar-23 23:33N 47°31' W 122°28'0 0.0
2015-Mar-23 23:30N 47°31' W 122°28'1 1.0
2015-Mar-23 22:33N 47°31' W 122°26'111.8
2015-Mar-23 22:30N 47°31' W 122°28'3 2.7
2015-Mar-23 21:33N 47°31' W 122°24'0 5.4
2015-Mar-23 21:30N 47°31' W 122°24'2 2.6
2015-Mar-23 20:33N 47°31' W 122°28'0 0.0
2015-Mar-23 20:30N 47°31' W 122°28'2 1.7
2015-Mar-23 19:34N 47°31' W 122°25'114.2
2015-Mar-23 19:30N 47°31' W 122°27'1 0.8
2015-Mar-23 18:33N 47°31' W 122°28'0 1.2
2015-Mar-23 18:30N 47°31' W 122°28'0 0.4
2015-Mar-23 17:33N 47°31' W 122°28'112.6
2015-Mar-23 17:30N 47°31' W 122°26'1 1.2
2015-Mar-23 16:33N 47°31' W 122°28'0 2.8
2015-Mar-23 16:30N 47°31' W 122°28'3 2.9
2015-Mar-23 15:34N 47°31' W 122°24'1 8.6
2015-Mar-23 15:30N 47°31' W 122°25'2 2.4
2015-Mar-23 14:33N 47°31' W 122°28'0 1.4
2015-Mar-23 14:24N 47°31' W 122°28'0 0.3
2015-Mar-23 13:33N 47°31' W 122°28'0 0.1
2015-Mar-23 13:29N 47°31' W 122°28'0 0.0
2015-Mar-23 12:33N 47°31' W 122°28'0 0.0
2015-Mar-23 12:29N 47°31' W 122°28'0 0.0
2015-Mar-23 11:33N 47°31' W 122°28'0 0.0
2015-Mar-23 11:29N 47°31' W 122°28'0 0.0
2015-Mar-23 10:34N 47°31' W 122°28'0 0.0
2015-Mar-23 10:29N 47°31' W 122°28'0 0.0
2015-Mar-23 09:34N 47°31' W 122°28'0 0.0
2015-Mar-23 09:29N 47°31' W 122°28'0 0.0
2015-Mar-23 08:33N 47°31' W 122°28'0 0.0
2015-Mar-23 08:18N 47°31' W 122°28'0 0.0
2015-Mar-23 07:33N 47°31' W 122°28'0 0.0
2015-Mar-23 07:33N 47°31' W 122°28'0 0.0
2015-Mar-23 06:33N 47°31' W 122°28'0 0.0
2015-Mar-23 06:32N 47°31' W 122°28'0 0.0
2015-Mar-23 06:02N 47°31' W 122°28'0 0.0
2015-Mar-23 05:33N 47°31' W 122°28'0 0.0
2015-Mar-23 04:33N 47°31' W 122°28'0 0.0
2015-Mar-23 04:32N 47°31' W 122°28'0 0.0
2015-Mar-23 03:33N 47°31' W 122°28'0 0.0
2015-Mar-23 03:32N 47°31' W 122°28'0 0.3
2015-Mar-23 02:33N 47°31' W 122°27'0 8.4
2015-Mar-23 02:32N 47°31' W 122°28'0 0.2
2015-Mar-23 01:34N 47°31' W 122°28'0 9.3
2015-Mar-23 01:32N 47°31' W 122°27'2 1.6
2015-Mar-23 00:34N 47°31' W 122°30'0 4.2
2015-Mar-23 00:31N 47°31' W 122°30'4 4.2
2015-Mar-22 23:33N 47°31' W 122°24'1 6.6
2015-Mar-22 23:21N 47°30' W 122°25'3 3.8
2015-Mar-22 22:34N 47°31' W 122°29'113.8
2015-Mar-22 22:31N 47°31' W 122°29'1 0.9
2015-Mar-22 21:33N 47°31' W 122°27'0 8.0
2015-Mar-22 21:31N 47°31' W 122°28'0 0.0
2015-Mar-22 20:33N 47°31' W 122°28'0 0.0
2015-Mar-22 20:31N 47°31' W 122°28'1 1.0
2015-Mar-22 19:34N 47°31' W 122°27'115.3
2015-Mar-22 19:31N 47°31' W 122°26'3 3.0
2015-Mar-22 18:33N 47°31' W 122°30'0 0.3
2015-Mar-22 18:25N 47°31' W 122°30'3 3.4
2015-Mar-22 17:34N 47°31' W 122°25'113.4
2015-Mar-22 17:31N 47°31' W 122°26'1 0.6
2015-Mar-22 16:34N 47°31' W 122°27'115.8
2015-Mar-22 16:30N 47°31' W 122°26'1 1.5
2015-Mar-22 15:34N 47°31' W 122°28'0 5.6
2015-Mar-22 15:30N 47°31' W 122°28'3 2.8
2015-Mar-22 14:33N 47°31' W 122°24'1 4.1
2015-Mar-22 14:20N 47°31' W 122°25'2 2.3
2015-Mar-22 13:34N 47°31' W 122°28'0 3.1
2015-Mar-22 13:30N 47°31' W 122°28'0 0.0
2015-Mar-22 12:33N 47°31' W 122°28'0 0.0
2015-Mar-22 12:30N 47°31' W 122°28'0 0.0
2015-Mar-22 11:33N 47°31' W 122°28'0 0.1
2015-Mar-22 11:30N 47°31' W 122°28'0 0.0
2015-Mar-22 10:33N 47°31' W 122°28'0 0.0
2015-Mar-22 10:18N 47°31' W 122°28'0 0.0
2015-Mar-22 09:33N 47°31' W 122°28'0 0.0
2015-Mar-22 09:29N 47°31' W 122°28'0 0.0
2015-Mar-22 08:33N 47°31' W 122°28'0 0.0
2015-Mar-22 08:29N 47°31' W 122°28'0 0.0
2015-Mar-22 07:33N 47°31' W 122°28'0 0.0
2015-Mar-22 07:29N 47°31' W 122°28'0 0.0
2015-Mar-22 06:33N 47°31' W 122°28'0 0.0
2015-Mar-22 06:29N 47°31' W 122°28'0 0.0
2015-Mar-22 06:09N 47°31' W 122°28'0 0.0
2015-Mar-22 05:33N 47°31' W 122°28'1 0.7
2015-Mar-22 04:33N 47°31' W 122°29'1 8.3
2015-Mar-22 04:29N 47°31' W 122°28'0 0.4
2015-Mar-22 03:33N 47°31' W 122°27'0 5.5
2015-Mar-22 03:29N 47°31' W 122°28'0 0.0
2015-Mar-22 02:34N 47°31' W 122°28'0 0.0
2015-Mar-22 02:33N 47°31' W 122°28'0 0.0
2015-Mar-22 01:33N 47°31' W 122°28'0 0.0
2015-Mar-22 01:33N 47°31' W 122°28'2 2.1
2015-Mar-22 00:34N 47°31' W 122°25'  

Dump ship's entire track history